Petersburg James A Johnson Airport Petersburg US
ICAO: PAPG
IATA:
Category: Medium
Scheduled Services:

Elevation: 111 ft
TransAlt. 18000 ft.

Airport Communications:
AWOS 3:125.8
ANCHORAGE CNTR:118
CTAF:122.5
SITKA RDO:122.35

PAPG Zoom In..

If you have problems with the map follow the link
https://www.worldairports.se/pages/airport.php?
ICAO=PAPG

Runways:

(A) RW 05 length 6400 ft width 150 ft
---- / hdg 50

(B) RW 23 length 6400 ft width 150 ft
---- / hdg 230

Location; PAPG
Day. 23 / Time. 18.56 Zulu
* Altimeter: 29.59
* Temperature: 12° c. 53.6°f.
* Wind from: 140° Speed 08 kn with Gusts up to 20 kn.
Dewpoint: 07° c.
Visibility: 4 Statute Miles.
Clouds: Scattered 2600 ft.
Clouds: Broken 5000 ft.
Clouds: Overcast 6000 ft.
Conditions: Light Rain.Conditions: Mist.

PAPG 231856Z 14008G20KT 080V200 4SM -RA BR SCT026 BKN050 OVC060 12/07 A2959 RMK AO2 SLP024 P0004 T01220072


Wind From 140°
Speed 08 kn.

 
 
jpsmedia.com for Web Design worldairports.se 2018   terms of use